createdAt,value
2023-01-31T00:02:10.537Z,100924.09
2023-01-31T00:07:12.676Z,100927.56
2023-01-31T00:12:16.193Z,100919.63
2023-01-31T00:17:18.368Z,100918.72
2023-01-31T00:22:20.762Z,100941.72
2023-01-31T00:27:24.470Z,100962.81
2023-01-31T00:32:26.395Z,100969.03
2023-01-31T00:37:28.607Z,100961.31
2023-01-31T00:42:31.975Z,100965.44
2023-01-31T00:47:34.555Z,100983.13
2023-01-31T00:52:38.315Z,100997.41
2023-01-31T00:57:41.964Z,100979.06
2023-01-31T01:02:44.244Z,100995.56
2023-01-31T01:07:46.583Z,100990.16
2023-01-31T01:12:50.175Z,101007.56
2023-01-31T01:17:52.450Z,101001.66
2023-01-31T01:22:54.482Z,101007.88
2023-01-31T01:27:57.654Z,101017.63
2023-01-31T01:32:59.961Z,101009.09
2023-01-31T01:38:02.542Z,101010.78
2023-01-31T01:43:06.032Z,101026.50
2023-01-31T01:48:08.445Z,101029.97
2023-01-31T01:53:14.606Z,101041.25
2023-01-31T01:58:22.687Z,101062.47
2023-01-31T02:03:24.963Z,101068.25
2023-01-31T02:08:30.348Z,101075.09
2023-01-31T02:13:34.994Z,101074.97
2023-01-31T02:18:36.978Z,101078.22
2023-01-31T02:24:09.311Z,101081.44
2023-01-31T02:29:35.941Z,101094.50
2023-01-31T02:34:50.015Z,101110.69
2023-01-31T02:40:02.202Z,101114.19
2023-01-31T02:45:11.274Z,101100.06
2023-01-31T02:50:24.525Z,101112.41
2023-01-31T02:55:32.400Z,101119.13
2023-01-31T03:00:37.307Z,101119.84
2023-01-31T03:05:40.888Z,101128.41
2023-01-31T03:11:02.979Z,101123.84
2023-01-31T03:16:16.060Z,101123.69
2023-01-31T03:21:25.968Z,101127.53
2023-01-31T03:26:29.017Z,101130.84
2023-01-31T03:31:37.465Z,101129.22
2023-01-31T03:36:48.371Z,101130.19
2023-01-31T03:41:57.987Z,101149.72
2023-01-31T03:47:05.850Z,101136.81
2023-01-31T03:52:10.956Z,101146.50
2023-01-31T03:57:18.319Z,101149.91
2023-01-31T04:02:23.654Z,101159.75
2023-01-31T04:07:27.366Z,101169.22
2023-01-31T04:12:29.620Z,101159.22
2023-01-31T04:17:32.134Z,101184.84
2023-01-31T04:22:36.922Z,101176.34
2023-01-31T04:27:39.129Z,101192.31
2023-01-31T04:32:41.283Z,101190.53
2023-01-31T04:37:44.692Z,101198.56
2023-01-31T04:42:46.758Z,101194.06
2023-01-31T04:47:49.212Z,101177.50
2023-01-31T04:52:53.761Z,101196.97
2023-01-31T04:57:56.156Z,101197.09
2023-01-31T05:02:58.379Z,101176.06
2023-01-31T05:08:01.969Z,101183.06
2023-01-31T05:13:04.052Z,101188.22
2023-01-31T05:18:05.816Z,101188.19
2023-01-31T05:23:09.259Z,101199.41
2023-01-31T05:28:12.345Z,101205.34
2023-01-31T05:33:14.925Z,101217.72
2023-01-31T05:38:18.421Z,101219.84
2023-01-31T05:43:20.587Z,101226.00
2023-01-31T05:48:22.728Z,101218.00
2023-01-31T05:53:26.226Z,101227.63
2023-01-31T05:58:28.219Z,101235.53
2023-01-31T06:03:30.874Z,101239.13
2023-01-31T06:08:34.697Z,101243.41
2023-01-31T06:13:36.989Z,101242.78
2023-01-31T06:18:43.311Z,101250.78
2023-01-31T06:23:46.895Z,101240.38
2023-01-31T06:28:48.831Z,101263.56
2023-01-31T06:33:51.210Z,101268.63
2023-01-31T06:38:54.345Z,101272.38
2023-01-31T06:43:57.492Z,101260.75
2023-01-31T06:48:59.500Z,101252.31
2023-01-31T06:54:02.871Z,101261.28
2023-01-31T06:59:05.775Z,101257.81
2023-01-31T07:04:07.616Z,101264.94
2023-01-31T07:09:11.238Z,101257.22
2023-01-31T07:14:13.366Z,101261.59
2023-01-31T07:19:15.170Z,101258.22
2023-01-31T07:24:18.580Z,101247.88
2023-01-31T07:29:20.733Z,101251.34
2023-01-31T07:34:22.971Z,101249.88
2023-01-31T07:39:26.570Z,101246.31
2023-01-31T07:44:28.638Z,101238.72
2023-01-31T07:49:30.856Z,101236.34
2023-01-31T07:54:34.002Z,101244.28
2023-01-31T07:59:35.946Z,101244.22
2023-01-31T08:04:37.812Z,101236.41
2023-01-31T08:09:41.295Z,101233.03
2023-01-31T08:14:43.140Z,101232.94
2023-01-31T08:19:44.978Z,101227.78
2023-01-31T08:24:48.796Z,101225.22
2023-01-31T08:29:50.643Z,101226.28
2023-01-31T08:34:52.490Z,101214.28
2023-01-31T08:39:55.992Z,101216.81
2023-01-31T08:44:58.253Z,101207.09
2023-01-31T08:50:00.466Z,101206.38
2023-01-31T08:55:04.428Z,101205.59
2023-01-31T09:00:08.669Z,101200.47
2023-01-31T09:05:10.678Z,101197.19
2023-01-31T09:10:14.289Z,101190.22
2023-01-31T09:15:16.545Z,101173.59
2023-01-31T09:20:18.738Z,101172.88
2023-01-31T09:25:33.394Z,101162.59
2023-01-31T09:30:39.774Z,101168.78
2023-01-31T09:35:41.564Z,101157.56
2023-01-31T09:40:45.368Z,101156.91
2023-01-31T09:45:48.664Z,101154.56
2023-01-31T09:50:52.886Z,101154.53
2023-01-31T09:56:06.065Z,101136.94
2023-01-31T10:01:17.896Z,101147.66
2023-01-31T10:06:23.924Z,101139.81
2023-01-31T10:11:36.583Z,101126.69
2023-01-31T10:16:45.620Z,101125.78
2023-01-31T10:21:52.635Z,101124.38
2023-01-31T10:27:01.915Z,101104.31
2023-01-31T10:32:06.670Z,101082.63
2023-01-31T10:37:14.508Z,101077.00
2023-01-31T10:42:25.110Z,101079.75
2023-01-31T10:47:32.601Z,101074.63
2023-01-31T10:52:50.587Z,101060.44
2023-01-31T10:57:55.411Z,101061.50
2023-01-31T11:02:58.684Z,101039.84
2023-01-31T11:08:06.690Z,101031.03
2023-01-31T11:13:19.441Z,101026.50
2023-01-31T11:18:29.038Z,101022.91
2023-01-31T11:23:33.921Z,101005.28
2023-01-31T11:28:38.628Z,100967.69
2023-01-31T11:33:43.332Z,100965.94
2023-01-31T11:38:45.450Z,100954.56
2023-01-31T11:43:48.970Z,100945.75
2023-01-31T11:48:51.187Z,100925.53
2023-01-31T11:53:54.033Z,100920.19
2023-01-31T11:59:00.984Z,100907.75
2023-01-31T12:04:05.339Z,100882.16
2023-01-31T12:09:20.795Z,100884.59
2023-01-31T12:14:35.822Z,100862.50
2023-01-31T12:19:50.676Z,100854.47
2023-01-31T12:25:03.870Z,100849.28
2023-01-31T12:30:25.383Z,100840.38
2023-01-31T12:35:42.850Z,100825.44
2023-01-31T12:40:55.459Z,100819.09
2023-01-31T12:46:08.497Z,100814.63
2023-01-31T12:51:24.969Z,100799.53
2023-01-31T12:56:39.571Z,100792.59
2023-01-31T13:01:49.409Z,100779.41
2023-01-31T13:06:55.623Z,100777.56
2023-01-31T13:12:04.454Z,100773.16
2023-01-31T13:17:14.025Z,100768.75
2023-01-31T13:22:20.701Z,100769.59
2023-01-31T13:27:28.162Z,100758.28
2023-01-31T13:32:37.470Z,100759.19
2023-01-31T13:37:42.011Z,100758.44
2023-01-31T13:42:44.070Z,100743.59
2023-01-31T13:47:51.616Z,100744.56
2023-01-31T13:52:56.847Z,100732.31
2023-01-31T13:58:05.754Z,100755.19
2023-01-31T14:03:10.882Z,100735.06
2023-01-31T14:08:30.145Z,100732.41
2023-01-31T14:13:41.035Z,100735.91
2023-01-31T14:18:45.319Z,100728.00
2023-01-31T14:23:47.073Z,100721.88
2023-01-31T14:28:49.165Z,100716.59
2023-01-31T14:33:54.426Z,100720.13
2023-01-31T14:39:27.733Z,100714.88
2023-01-31T14:44:43.724Z,100699.13
2023-01-31T14:50:22.683Z,100702.63
2023-01-31T14:55:37.833Z,100696.47
2023-01-31T15:00:49.218Z,100684.25
2023-01-31T15:05:53.371Z,100679.06
2023-01-31T15:11:02.680Z,100689.59
2023-01-31T15:16:07.863Z,100684.44
2023-01-31T15:21:10.789Z,100673.94
2023-01-31T15:26:17.045Z,100682.72
2023-01-31T15:31:23.196Z,100659.16
2023-01-31T15:36:30.488Z,100665.34
2023-01-31T15:41:42.297Z,100674.97
2023-01-31T15:46:45.917Z,100680.28
2023-01-31T15:52:03.137Z,100668.88
2023-01-31T15:57:15.542Z,100675.91
2023-01-31T16:02:22.830Z,100645.19
2023-01-31T16:07:26.902Z,100653.13
2023-01-31T16:12:32.161Z,100659.31
2023-01-31T16:17:34.594Z,100659.38
2023-01-31T16:22:36.495Z,100663.81
2023-01-31T16:27:43.434Z,100650.66
2023-01-31T16:32:45.696Z,100679.63
2023-01-31T16:38:00.343Z,100679.66
2023-01-31T16:43:17.441Z,100671.78
2023-01-31T16:48:26.225Z,100682.31
2023-01-31T16:53:31.128Z,100669.19
2023-01-31T16:58:46.421Z,100663.94
2023-01-31T17:04:16.856Z,100643.78
2023-01-31T17:09:21.777Z,100655.22
2023-01-31T17:14:25.676Z,100637.66
2023-01-31T17:19:27.439Z,100647.28
2023-01-31T17:24:29.583Z,100651.69
2023-01-31T17:29:32.910Z,100632.41
2023-01-31T17:34:35.091Z,100623.63
2023-01-31T17:39:37.178Z,100619.28
2023-01-31T17:44:40.881Z,100621.03
2023-01-31T17:49:44.035Z,100607.00
2023-01-31T17:54:47.626Z,100602.59
2023-01-31T17:59:52.442Z,100585.06
2023-01-31T18:04:54.739Z,100564.00
2023-01-31T18:09:57.187Z,100553.50
2023-01-31T18:15:01.317Z,100554.41
2023-01-31T18:20:03.670Z,100556.19
2023-01-31T18:25:06.818Z,100546.59
2023-01-31T18:30:12.155Z,100553.66
2023-01-31T18:35:13.886Z,100541.41
2023-01-31T18:40:16.219Z,100528.28
2023-01-31T18:45:20.055Z,100531.81
2023-01-31T18:50:22.476Z,100525.66
2023-01-31T18:55:24.543Z,100534.47
2023-01-31T19:00:29.164Z,100521.34
2023-01-31T19:05:30.936Z,100541.56
2023-01-31T19:10:33.127Z,100549.47
2023-01-31T19:15:36.579Z,100551.25
2023-01-31T19:20:38.335Z,100543.34
2023-01-31T19:25:40.067Z,100537.19
2023-01-31T19:30:43.556Z,100539.84
2023-01-31T19:35:46.107Z,100545.09
2023-01-31T19:40:47.974Z,100542.47
2023-01-31T19:45:51.515Z,100545.09
2023-01-31T19:50:53.650Z,100553.00
2023-01-31T19:55:56.031Z,100558.31
2023-01-31T20:01:01.599Z,100558.28
2023-01-31T20:06:05.550Z,100580.25
2023-01-31T20:11:08.222Z,100580.25
2023-01-31T20:16:13.854Z,100566.19
2023-01-31T20:21:17.550Z,100566.22
2023-01-31T20:26:19.855Z,100602.19
2023-01-31T20:31:23.161Z,100629.41
2023-01-31T20:36:25.022Z,100638.09
2023-01-31T20:41:26.846Z,100640.72
2023-01-31T20:46:30.266Z,100649.47
2023-01-31T20:51:32.398Z,100643.34
2023-01-31T20:56:34.342Z,100652.94
2023-01-31T21:01:38.278Z,100640.59
2023-01-31T21:06:40.844Z,100659.00
2023-01-31T21:11:43.383Z,100651.88
2023-01-31T21:16:47.754Z,100657.00
2023-01-31T21:21:49.942Z,100667.44
2023-01-31T21:26:52.106Z,100652.41
2023-01-31T21:31:55.514Z,100654.78
2023-01-31T21:36:57.368Z,100667.13
2023-01-31T21:41:59.541Z,100661.88
2023-01-31T21:47:03.810Z,100661.88
2023-01-31T21:52:06.544Z,100670.88
2023-01-31T21:57:08.619Z,100656.81
2023-01-31T22:02:12.138Z,100658.59
2023-01-31T22:07:14.375Z,100663.00
2023-01-31T22:12:16.699Z,100659.66
2023-01-31T22:17:20.612Z,100688.75
2023-01-31T22:22:23.013Z,100677.38
2023-01-31T22:27:25.287Z,100681.75
2023-01-31T22:32:28.972Z,100676.38
2023-01-31T22:37:31.133Z,100683.41
2023-01-31T22:42:33.173Z,100682.53
2023-01-31T22:47:36.675Z,100678.88
2023-01-31T22:52:38.656Z,100688.50
2023-01-31T22:57:40.715Z,100698.13
2023-01-31T23:02:44.327Z,100679.66
2023-01-31T23:07:46.206Z,100673.41
2023-01-31T23:12:47.954Z,100683.03
2023-01-31T23:17:52.174Z,100696.06
2023-01-31T23:22:56.588Z,100684.63
2023-01-31T23:27:58.704Z,100689.06
2023-01-31T23:33:02.786Z,100683.78
2023-01-31T23:38:05.459Z,100681.81
2023-01-31T23:43:08.961Z,100658.75
2023-01-31T23:48:13.133Z,100670.25
2023-01-31T23:53:15.570Z,100668.56
2023-01-31T23:58:18.000Z,100669.31
